Time;durP1;ratioP1;P1;durP2;ratioP2;P2;SDS_P1;SDS_P2;PMS_P1;PMS_P2;Temp;Humidity;BMP_temperature;BMP_pressure;BME280_temperature;BME280_humidity;BME280_pressure;Samples;Min_cycle;Max_cycle;Signal;HPM_P1;HPM_P2
2022/11/03 00:01:50;;;;;;;17.52;7.70;;;;;;;11.89;55.08;99773.25;4982194;28;20092;-89
2022/11/03 00:04:18;;;;;;;16.98;6.95;;;;;;;11.99;54.79;99788.66;4982068;28;20037;-89
2022/11/03 00:06:44;;;;;;;17.23;7.32;;;;;;;11.87;55.39;99788.84;4983278;28;20040;-89
2022/11/03 00:09:12;;;;;;;13.30;6.90;;;;;;;11.77;55.46;99786.97;4980353;28;20037;-89
2022/11/03 00:11:39;;;;;;;13.75;6.85;;;;;;;11.78;55.13;99791.28;4983913;28;20462;-89
2022/11/03 00:14:05;;;;;;;16.08;7.38;;;;;;;11.67;55.69;99789.63;4982264;28;20488;-89
2022/11/03 00:16:31;;;;;;;13.88;7.57;;;;;;;11.70;55.54;99808.81;4992904;28;20040;-89
2022/11/03 00:18:56;;;;;;;15.13;7.00;;;;;;;11.72;55.42;99801.25;4980848;28;20435;-89
2022/11/03 00:21:22;;;;;;;10.55;6.63;;;;;;;11.83;55.47;99799.41;4983430;28;20083;-89
2022/11/03 00:23:47;;;;;;;16.50;6.78;;;;;;;11.79;55.55;99787.50;4995676;28;20025;-89
2022/11/03 00:26:16;;;;;;;12.80;6.47;;;;;;;11.98;55.69;99817.53;4981928;28;20103;-89
2022/11/03 00:28:43;;;;;;;20.38;7.68;;;;;;;11.81;56.14;99806.13;4996696;28;20029;-89
2022/11/03 00:31:09;;;;;;;15.52;6.68;;;;;;;11.71;56.41;99801.53;4984409;28;20032;-89
2022/11/03 00:33:35;;;;;;;11.80;6.07;;;;;;;11.76;56.13;99803.41;4997738;28;20052;-89
2022/11/03 00:36:01;;;;;;;12.85;6.53;;;;;;;11.60;56.35;99802.53;4980890;28;20412;-89
2022/11/03 00:38:27;;;;;;;12.32;6.45;;;;;;;11.62;56.57;99813.88;5001783;28;20491;-89
2022/11/03 00:40:54;;;;;;;16.38;6.93;;;;;;;11.69;56.62;99827.94;5005131;28;20033;-89
2022/11/03 00:43:21;;;;;;;14.73;6.43;;;;;;;11.50;56.78;99809.53;4983688;28;20053;-89
2022/11/03 00:45:46;;;;;;;11.88;6.03;;;;;;;11.32;56.79;99801.91;5000741;28;20501;-89
2022/11/03 00:48:31;;;;;;;15.55;6.10;;;;;;;11.31;56.62;99819.97;4981760;28;20022;-89
2022/11/03 00:51:12;;;;;;;8.82;5.93;;;;;;;11.22;57.35;99807.25;4985566;28;20036;-89
2022/11/03 00:53:49;;;;;;;10.30;5.28;;;;;;;11.13;57.51;99821.22;5012826;28;20412;-89
2022/11/03 00:56:16;;;;;;;10.50;6.00;;;;;;;11.02;57.75;99822.22;4982564;28;20030;-89
2022/11/03 00:58:42;;;;;;;11.77;6.07;;;;;;;11.09;57.56;99817.41;4983417;28;20506;-89
2022/11/03 01:01:12;;;;;;;12.90;5.93;;;;;;;11.27;57.09;99824.25;4982409;28;20112;-89
2022/11/03 01:03:38;;;;;;;10.52;5.80;;;;;;;11.37;57.11;99823.50;4978886;28;20025;-90
2022/11/03 01:08:51;;;;;;;15.13;5.97;;;;;;;11.30;57.11;99823.72;5005066;28;20060;-89
2022/11/03 01:14:03;;;;;;;18.40;6.00;;;;;;;11.22;57.20;99829.59;5005030;28;20032;-89
2022/11/03 01:16:29;;;;;;;17.40;6.72;;;;;;;11.05;57.69;99821.69;4998910;28;20025;-91
2022/11/03 01:18:55;;;;;;;10.45;5.82;;;;;;;10.97;57.77;99818.69;4981906;28;20029;-91
2022/11/03 01:21:20;;;;;;;11.40;5.97;;;;;;;10.89;57.91;99817.28;4980321;28;20080;-91
2022/11/03 01:23:47;;;;;;;14.35;6.10;;;;;;;11.05;57.48;99821.69;4983612;28;20049;-90
2022/11/03 01:26:13;;;;;;;11.00;6.47;;;;;;;10.93;58.20;99831.84;4992786;28;20064;-91
2022/11/03 01:28:41;;;;;;;16.55;7.05;;;;;;;10.86;57.96;99826.69;4980057;28;20059;-91
2022/11/03 01:31:08;;;;;;;18.95;6.25;;;;;;;10.91;58.01;99839.38;4979277;28;20041;-91
2022/11/03 01:33:33;;;;;;;15.25;6.13;;;;;;;10.78;58.36;99829.06;4983001;28;20017;-90
2022/11/03 01:35:59;;;;;;;14.20;6.32;;;;;;;10.87;58.13;99835.59;4996308;28;20496;-91
2022/11/03 01:38:24;;;;;;;13.73;6.32;;;;;;;11.04;57.63;99844.34;4981079;28;20025;-90
2022/11/03 01:40:51;;;;;;;12.57;6.15;;;;;;;11.11;57.76;99841.41;4980144;28;20034;-91
2022/11/03 01:43:23;;;;;;;9.88;5.30;;;;;;;11.16;57.91;99837.94;4997031;28;20036;-91
2022/11/03 01:45:52;;;;;;;10.00;6.25;;;;;;;11.32;57.91;99851.22;5000145;28;20026;-91
2022/11/03 01:48:17;;;;;;;13.35;5.88;;;;;;;11.08;58.27;99839.22;4979244;28;20029;-91
2022/11/03 01:50:43;;;;;;;15.00;5.82;;;;;;;10.90;58.57;99841.28;4981604;28;20037;-90
2022/11/03 01:53:08;;;;;;;13.93;6.28;;;;;;;10.81;58.92;99842.00;4980841;28;20534;-90
2022/11/03 01:55:35;;;;;;;10.52;5.65;;;;;;;10.65;59.27;99835.72;4996916;28;20034;-91
2022/11/03 01:58:12;;;;;;;13.82;5.93;;;;;;;10.67;59.23;99834.38;4980480;28;20039;-90
2022/11/03 02:00:37;;;;;;;10.40;5.75;;;;;;;10.54;59.50;99850.94;4981449;28;20033;-91
2022/11/03 02:03:03;;;;;;;12.65;5.72;;;;;;;10.46;59.79;99841.47;4979821;28;20101;-91
2022/11/03 02:05:28;;;;;;;11.38;5.72;;;;;;;10.49;59.70;99851.72;4981727;28;20484;-91
2022/11/03 02:07:57;;;;;;;16.35;5.90;;;;;;;10.43;59.81;99846.56;4979736;28;20025;-91
2022/11/03 02:10:23;;;;;;;10.13;5.15;;;;;;;10.50;59.63;99855.25;4980526;28;20037;-91
2022/11/03 02:12:48;;;;;;;11.88;5.38;;;;;;;10.41;60.42;99854.88;4979257;28;20026;-91
2022/11/03 02:15:15;;;;;;;14.18;5.45;;;;;;;10.63;59.72;99867.47;4980107;28;20434;-91
2022/11/03 02:17:41;;;;;;;11.02;5.03;;;;;;;10.66;59.35;99856.16;4983328;28;20041;-90
2022/11/03 02:20:10;;;;;;;15.65;6.07;;;;;;;10.72;59.02;99861.34;4985951;28;20034;-91
2022/11/03 02:22:44;;;;;;;9.75;5.45;;;;;;;10.66;59.78;99877.72;4981991;28;20491;-91
2022/11/03 02:25:43;;;;;;;12.70;5.35;;;;;;;10.39;60.53;99869.66;5022875;28;20026;-91
2022/11/03 02:28:09;;;;;;;16.98;5.53;;;;;;;10.33;60.38;99871.50;5011817;28;20045;-91
2022/11/03 02:30:47;;;;;;;11.00;5.57;;;;;;;10.55;59.88;99874.13;4981163;28;20041;-91
2022/11/03 02:33:31;;;;;;;11.95;5.40;;;;;;;10.43;60.09;99870.78;5022703;28;20036;-91
2022/11/03 02:36:13;;;;;;;7.90;4.82;;;;;;;10.42;60.16;99871.88;5014159;28;20025;-91
2022/11/03 02:38:42;;;;;;;;;;;;;;;10.48;60.02;99884.31;4980618;28;20061;-91
2022/11/03 02:41:07;;;;;;;8.13;4.72;;;;;;;10.56;59.82;99883.00;4993812;28;20372;-91
2022/11/03 02:43:32;;;;;;;17.90;6.03;;;;;;;10.56;60.11;99886.50;4977619;28;20037;-91
2022/11/03 02:45:58;;;;;;;11.27;5.47;;;;;;;10.40;59.94;99882.09;4977014;28;20053;-91
2022/11/03 02:48:23;;;;;;;11.18;5.80;;;;;;;10.27;60.56;99889.47;4977985;28;20381;-90
2022/11/03 02:50:49;;;;;;;9.98;4.90;;;;;;;10.19;60.97;99897.97;4993223;28;20026;-90
2022/11/03 02:53:17;;;;;;;10.05;5.43;;;;;;;10.17;60.32;99880.44;4997203;28;20500;-89
2022/11/03 02:56:06;;;;;;;10.48;5.13;;;;;;;10.32;60.03;99878.75;4993531;28;20175;-91
2022/11/03 02:59:10;;;;;;;8.30;5.15;;;;;;;10.35;60.60;99892.78;4977698;28;20480;-90
2022/11/03 03:01:47;;;;;;;10.45;5.38;;;;;;;10.28;60.45;99893.75;5012894;28;20018;-90
2022/11/03 03:04:21;;;;;;;11.10;5.30;;;;;;;10.19;60.32;99889.06;4980493;28;20025;-90
2022/11/03 03:06:49;;;;;;;12.35;5.90;;;;;;;10.20;60.30;99896.09;4980753;28;20035;-90
2022/11/03 03:09:20;;;;;;;12.38;7.43;;;;;;;9.97;61.37;99886.44;4981914;28;20029;-89
2022/11/03 03:11:45;;;;;;;13.25;6.65;;;;;;;9.97;61.09;99889.13;4979311;28;20022;-90
2022/11/03 03:14:40;;;;;;;12.38;6.03;;;;;;;10.10;61.08;99913.75;4978718;28;20029;-90
2022/11/03 03:17:09;;;;;;;10.02;5.45;;;;;;;10.15;60.86;99915.69;4975313;28;20049;-90
2022/11/03 03:19:46;;;;;;;13.55;5.60;;;;;;;10.15;61.28;99920.25;5012022;28;20041;-91
2022/11/03 03:22:23;;;;;;;11.57;5.70;;;;;;;9.99;62.02;99913.91;5012719;28;20120;-90
2022/11/03 03:25:21;;;;;;;11.82;5.90;;;;;;;10.05;61.68;99927.16;4978963;28;20488;-90
2022/11/03 03:27:52;;;;;;;11.63;6.03;;;;;;;10.18;60.73;99927.84;4980305;28;20057;-90
2022/11/03 03:30:18;;;;;;;10.90;5.97;;;;;;;10.15;61.08;99923.78;4982578;28;20041;-90
2022/11/03 03:32:47;;;;;;;12.77;6.15;;;;;;;9.81;62.06;99910.44;4978400;28;20272;-90
2022/11/03 03:35:16;;;;;;;13.68;6.18;;;;;;;9.78;61.81;99910.94;4983626;28;20025;-89
2022/11/03 03:37:44;;;;;;;13.75;6.50;;;;;;;9.76;61.52;99912.28;4983584;28;20133;-90
2022/11/03 03:40:10;;;;;;;10.98;6.45;;;;;;;9.70;61.34;99922.94;4999431;28;20021;-90
2022/11/03 03:42:38;;;;;;;14.57;5.95;;;;;;;9.77;61.09;99927.34;5001470;28;20041;-91
2022/11/03 03:45:05;;;;;;;14.82;6.60;;;;;;;9.67;62.01;99928.00;5011042;28;20113;-90
2022/11/03 03:47:31;;;;;;;12.60;6.60;;;;;;;9.41;62.04;99908.84;4982578;28;20035;-91
2022/11/03 03:49:57;;;;;;;14.35;5.50;;;;;;;9.43;62.37;99917.47;4998252;28;20863;-90
2022/11/03 03:52:22;;;;;;;10.35;5.90;;;;;;;9.48;62.09;99920.25;4982281;28;20061;-91
2022/11/03 03:54:48;;;;;;;11.27;5.68;;;;;;;9.73;61.24;99939.66;5010131;28;20505;-90
2022/11/03 03:57:15;;;;;;;10.52;5.18;;;;;;;9.66;61.15;99912.94;5001530;28;20507;-91
2022/11/03 03:59:41;;;;;;;11.40;4.85;;;;;;;9.63;61.74;99916.13;4980937;28;20037;-90
2022/11/03 04:02:07;;;;;;;15.52;6.10;;;;;;;9.56;62.65;99921.69;4985279;28;20033;-91
2022/11/03 04:04:33;;;;;;;12.57;6.05;;;;;;;9.67;61.45;99912.69;4984108;28;20080;-90
2022/11/03 04:09:42;;;;;;;12.55;6.05;;;;;;;9.43;61.97;99919.34;5002446;28;20036;-90
2022/11/03 04:23:03;;;;;;;12.25;5.93;;;;;;;9.38;62.87;99927.34;5009102;28;20032;-96
2022/11/03 04:25:29;;;;;;;14.10;6.72;;;;;;;9.17;63.39;99920.84;4983843;28;20030;-95
2022/11/03 04:27:54;;;;;;;14.40;6.75;;;;;;;9.14;63.37;99913.28;4971128;28;20060;-95
2022/11/03 04:30:23;;;;;;;9.90;6.35;;;;;;;9.10;63.87;99919.13;4987885;28;20031;-95
2022/11/03 04:32:49;;;;;;;15.30;8.10;;;;;;;9.02;64.11;99916.84;4987754;28;20029;-95
2022/11/03 04:35:25;;;;;;;14.85;6.10;;;;;;;9.05;64.09;99916.38;4986994;28;20032;-95
2022/11/03 04:37:58;;;;;;;14.75;6.55;;;;;;;8.90;64.36;99914.28;4980104;28;20384;-95
2022/11/03 04:40:23;;;;;;;12.85;6.88;;;;;;;8.71;64.47;99910.19;4968924;28;20091;-93
2022/11/03 04:42:49;;;;;;;12.05;5.93;;;;;;;8.74;64.25;99920.44;4968203;28;20117;-94
2022/11/03 04:45:30;;;;;;;13.07;5.75;;;;;;;8.82;64.59;99938.00;4967351;28;20113;-93
2022/11/03 04:47:57;;;;;;;253.07;27.67;;;;;;;8.84;64.24;99955.53;4984287;28;20018;-93
2022/11/03 04:50:23;;;;;;;14.27;7.03;;;;;;;8.63;64.83;99937.41;4967385;28;20467;-94
2022/11/03 04:52:53;;;;;;;67.88;10.75;;;;;;;8.65;64.86;99944.19;4967882;28;20026;-95
2022/11/03 04:55:18;;;;;;;14.60;6.57;;;;;;;8.71;64.10;99934.34;4968802;28;20040;-94
2022/11/03 04:57:44;;;;;;;10.80;6.68;;;;;;;8.65;64.35;99933.47;4967784;28;20022;-93
2022/11/03 05:00:17;;;;;;;15.35;6.25;;;;;;;8.59;64.80;99937.09;4980747;28;20397;-94
2022/11/03 05:02:43;;;;;;;12.43;6.38;;;;;;;8.59;64.30;99937.09;4979709;28;20028;-93
2022/11/03 05:05:22;;;;;;;14.63;6.13;;;;;;;8.57;64.59;99949.13;4983741;28;20033;-95
2022/11/03 05:07:52;;;;;;;16.42;6.55;;;;;;;8.59;63.73;99939.78;4971001;28;20024;-95
2022/11/03 05:10:19;;;;;;;14.95;6.35;;;;;;;8.70;64.49;99962.25;5001492;28;20462;-95
2022/11/03 05:12:46;;;;;;;15.00;6.80;;;;;;;8.60;64.53;99954.03;4986322;28;20025;-95
2022/11/03 05:15:30;;;;;;;21.95;6.78;;;;;;;8.80;64.58;99981.25;4979422;28;20466;-90
2022/11/03 05:17:56;;;;;;;20.13;6.78;;;;;;;8.69;64.64;99969.50;5014572;28;20079;-91
2022/11/03 05:20:30;;;;;;;13.88;7.57;;;;;;;8.78;64.41;99977.97;4993206;28;20021;-91
2022/11/03 05:22:58;;;;;;;17.40;7.80;;;;;;;9.01;63.77;99981.59;4983240;28;20029;-92
2022/11/03 05:25:41;;;;;;;14.00;6.13;;;;;;;9.05;63.60;99980.03;4981981;28;20021;-89
2022/11/03 05:28:20;;;;;;;16.70;7.07;;;;;;;9.14;63.66;99972.41;4982485;28;20032;-91
2022/11/03 05:30:47;;;;;;;12.43;6.90;;;;;;;9.12;63.67;99974.50;4996836;28;20032;-91
2022/11/03 05:33:31;;;;;;;13.80;7.00;;;;;;;9.31;62.94;99978.56;4981652;28;20091;-91
2022/11/03 05:35:58;;;;;;;12.73;6.28;;;;;;;9.38;62.45;99973.03;4994056;28;20456;-93
2022/11/03 05:38:24;;;;;;;18.25;7.35;;;;;;;9.33;62.52;99976.44;4986216;28;20502;-91
2022/11/03 05:40:51;;;;;;;13.40;7.22;;;;;;;9.36;62.62;99997.47;4983181;28;20034;-92
2022/11/03 05:43:16;;;;;;;18.30;7.97;;;;;;;9.34;62.46;99975.41;4994813;28;20029;-91
2022/11/03 05:45:42;;;;;;;18.30;7.00;;;;;;;9.36;62.87;99985.88;4979747;28;20030;-92
2022/11/03 05:48:16;;;;;;;12.50;7.00;;;;;;;9.44;62.84;99986.31;4967791;28;20052;-94
2022/11/03 05:50:41;;;;;;;20.85;7.80;;;;;;;9.56;62.39;99986.19;4965731;28;20026;-92
2022/11/03 05:53:34;;;;;;;16.45;8.23;;;;;;;9.86;62.27;100010.03;4966566;28;20045;-91
2022/11/03 05:56:01;;;;;;;12.68;8.07;;;;;;;9.84;61.23;99976.38;4996184;28;20072;-95
2022/11/03 05:58:34;;;;;;;15.90;7.47;;;;;;;10.04;60.60;99984.72;4966318;28;20029;-91
2022/11/03 06:01:03;;;;;;;13.45;6.75;;;;;;;10.25;60.25;99998.41;4982369;28;20028;-93
2022/11/03 06:03:29;;;;;;;18.33;8.15;;;;;;;10.27;60.16;99988.22;4986106;28;20033;-94
2022/11/03 06:05:55;;;;;;;15.30;7.97;;;;;;;10.51;59.71;100005.75;5001787;28;20022;-93
2022/11/03 06:08:33;;;;;;;20.45;7.72;;;;;;;10.66;59.27;100012.38;5001765;28;20108;-93
2022/11/03 06:11:02;;;;;;;16.73;8.38;;;;;;;10.84;59.15;100017.41;5021736;28;20033;-93
2022/11/03 06:13:33;;;;;;;16.23;7.40;;;;;;;10.96;58.52;100027.22;4980997;28;20357;-92
2022/11/03 06:16:04;;;;;;;18.23;8.95;;;;;;;11.10;58.14;100025.72;4981952;28;20026;-92
2022/11/03 06:18:32;;;;;;;18.98;8.18;;;;;;;11.36;57.58;100042.97;5000498;28;20076;-91
2022/11/03 06:21:04;;;;;;;22.73;8.15;;;;;;;11.47;56.76;100035.75;4996654;28;20041;-93
2022/11/03 06:23:31;;;;;;;15.43;6.78;;;;;;;11.51;56.09;100024.19;4973470;28;20053;-92
2022/11/03 06:25:58;;;;;;;15.00;6.32;;;;;;;11.87;55.30;100058.69;4980153;28;20025;-92
2022/11/03 06:28:33;;;;;;;15.35;5.60;;;;;;;11.93;54.11;100055.81;4998193;28;20056;-92
2022/11/03 06:30:59;;;;;;;10.88;4.93;;;;;;;11.94;53.96;100043.13;4984114;28;20033;-91
2022/11/03 06:33:28;;;;;;;7.82;4.95;;;;;;;12.01;53.75;100042.88;5004848;28;20029;-89
2022/11/03 06:36:21;;;;;;;17.75;5.40;;;;;;;12.14;53.90;100045.13;4996196;28;20025;-89
2022/11/03 06:38:49;;;;;;;12.52;5.78;;;;;;;12.00;54.30;100063.69;4985419;28;20075;-89
2022/11/03 06:41:27;;;;;;;12.63;6.07;;;;;;;11.86;54.73;100059.78;4997737;28;20026;-90
2022/11/03 06:43:53;;;;;;;17.20;7.05;;;;;;;11.98;55.21;100070.41;4981887;28;20029;-88
2022/11/03 06:46:25;;;;;;;19.10;6.05;;;;;;;12.11;54.80;100067.25;4996243;28;20049;-91
2022/11/03 06:49:04;;;;;;;17.73;6.57;;;;;;;11.96;55.46;100059.06;5000882;28;20086;-90
2022/11/03 06:51:30;;;;;;;15.25;6.70;;;;;;;11.97;55.27;100044.50;4967575;28;20117;-92
2022/11/03 06:54:07;;;;;;;17.98;8.50;;;;;;;12.24;54.80;100063.25;4983611;28;20058;-91
2022/11/03 06:56:37;;;;;;;14.65;7.80;;;;;;;12.45;54.28;100077.66;4965913;28;20029;-90
2022/11/03 06:59:06;;;;;;;20.75;8.00;;;;;;;12.41;53.79;100053.09;4967634;28;20025;-90
2022/11/03 07:01:33;;;;;;;16.73;7.72;;;;;;;12.64;53.52;100080.75;5000965;28;20421;-90
2022/11/03 07:04:18;;;;;;;18.88;7.68;;;;;;;12.67;53.49;100053.19;4976349;28;20057;-93
2022/11/03 07:06:44;;;;;;;92.50;46.53;;;;;;;12.80;53.05;100057.28;4986917;28;20033;-90
2022/11/03 07:09:21;;;;;;;164.95;89.43;;;;;;;13.03;53.15;100064.06;5003367;28;20084;-92
2022/11/03 07:11:52;;;;;;;16.92;7.32;;;;;;;12.94;52.66;100048.38;4987839;28;20030;-87
2022/11/03 07:14:27;;;;;;;17.13;7.90;;;;;;;13.05;52.44;100059.22;5001504;28;20051;-92
2022/11/03 07:17:09;;;;;;;17.20;7.45;;;;;;;13.06;52.15;100052.75;4985272;28;20068;-93
2022/11/03 07:19:39;;;;;;;15.57;6.88;;;;;;;13.29;51.57;100067.66;4973653;28;20109;-92
2022/11/03 07:22:14;;;;;;;17.67;7.13;;;;;;;13.41;51.92;100078.22;4973445;28;20048;-92
2022/11/03 07:24:40;;;;;;;14.60;7.63;;;;;;;13.40;51.83;100063.88;5016317;28;20119;-92
2022/11/03 07:27:18;;;;;;;22.50;8.05;;;;;;;13.40;51.87;100047.66;5012415;28;20060;-92
2022/11/03 07:29:46;;;;;;;16.15;7.65;;;;;;;13.65;51.59;100056.84;4983888;28;20377;-89
2022/11/03 07:32:15;;;;;;;19.00;8.15;;;;;;;13.63;51.33;100040.88;4982498;28;20034;-89
2022/11/03 07:34:41;;;;;;;18.80;8.48;;;;;;;13.78;51.00;100052.75;4977327;28;20036;-90
2022/11/03 07:37:09;;;;;;;13.77;6.70;;;;;;;13.92;50.35;100053.81;4966794;28;20021;-91
2022/11/03 07:39:36;;;;;;;26.88;8.15;;;;;;;14.02;50.60;100048.38;4979216;28;20523;-90
2022/11/03 07:42:10;;;;;;;26.42;8.48;;;;;;;14.05;50.15;100028.91;5005910;28;20511;-96
2022/11/03 07:44:42;;;;;;;14.60;6.68;;;;;;;14.13;49.90;100022.91;5005184;28;20033;-95
2022/11/03 07:47:18;;;;;;;51.13;10.40;;;;;;;14.32;50.35;100036.66;5002674;28;20022;-96
2022/11/03 07:49:47;;;;;;;20.38;8.52;;;;;;;14.55;50.27;100042.53;5004206;28;20029;-94
2022/11/03 07:52:18;;;;;;;18.27;10.43;;;;;;;14.68;49.68;100051.97;4984467;28;20029;-93
2022/11/03 07:55:01;;;;;;;20.37;7.00;;;;;;;14.73;48.87;100047.34;4993204;28;20068;-93
2022/11/03 07:57:33;;;;;;;18.98;7.07;;;;;;;14.79;48.81;100033.75;5009938;28;20091;-94
2022/11/03 08:00:16;;;;;;;15.30;6.97;;;;;;;14.90;48.07;100028.00;4993287;28;20483;-96
2022/11/03 08:02:47;;;;;;;9.40;5.72;;;;;;;15.08;48.04;100031.13;4994146;28;20029;-94
2022/11/03 08:05:12;;;;;;;16.73;7.32;;;;;;;15.18;47.78;100030.25;4988522;28;20029;-92
2022/11/03 08:07:38;;;;;;;13.88;5.72;;;;;;;15.28;47.48;100035.59;5002850;28;20026;-92
2022/11/03 08:10:13;;;;;;;23.45;6.90;;;;;;;15.34;46.95;100026.31;5002313;28;20036;-94
2022/11/03 08:12:39;;;;;;;13.05;5.90;;;;;;;15.33;47.03;100019.25;4979725;28;20048;-93
2022/11/03 08:15:05;;;;;;;18.58;6.25;;;;;;;15.51;46.96;100024.00;4998398;28;20412;-91
2022/11/03 08:17:33;;;;;;;10.57;5.50;;;;;;;15.67;46.67;100038.25;4982912;28;20060;-95
2022/11/03 08:19:59;;;;;;;21.20;7.07;;;;;;;15.55;46.61;100003.31;4982649;28;20021;-91
2022/11/03 08:22:24;;;;;;;12.50;6.53;;;;;;;15.60;46.76;100002.47;4999568;28;20087;-92
2022/11/03 08:24:51;;;;;;;14.60;6.47;;;;;;;15.76;46.52;100020.25;4986533;28;20193;-92
2022/11/03 08:27:18;;;;;;;13.52;6.00;;;;;;;15.83;46.23;100021.81;4983811;28;20053;-93
2022/11/03 08:29:43;;;;;;;14.05;6.57;;;;;;;15.89;46.41;100005.19;4982081;28;20160;-92
2022/11/03 08:32:19;;;;;;;11.60;6.10;;;;;;;15.99;46.57;100001.56;4981671;28;20041;-92
2022/11/03 08:34:45;;;;;;;13.43;7.47;;;;;;;16.22;46.58;100018.13;5017911;28;20056;-92
2022/11/03 08:37:14;;;;;;;14.05;7.18;;;;;;;16.21;46.09;100009.19;5003100;28;20034;-93
2022/11/03 08:39:42;;;;;;;18.95;6.45;;;;;;;16.29;46.01;99999.56;5003189;28;20029;-93
2022/11/03 08:42:10;;;;;;;10.05;5.30;;;;;;;16.40;45.81;100003.00;5039455;28;20045;-92
2022/11/03 08:44:41;;;;;;;17.33;7.55;;;;;;;16.49;46.89;100006.66;4984130;28;20170;-95
2022/11/03 08:47:07;;;;;;;17.65;9.00;;;;;;;16.48;46.41;99994.19;4990823;28;20026;-96
2022/11/03 08:49:32;;;;;;;12.23;6.03;;;;;;;16.51;46.23;99990.88;4989253;28;20112;-95
2022/11/03 08:52:06;;;;;;;9.63;5.10;;;;;;;16.65;46.36;99999.13;4991238;28;20140;-95
2022/11/03 08:54:32;;;;;;;11.98;5.60;;;;;;;16.90;45.41;100006.13;4993938;28;20054;-94
2022/11/03 08:56:58;;;;;;;11.07;5.28;;;;;;;16.88;44.88;99990.09;4990416;28;20033;-94
2022/11/03 08:59:23;;;;;;;13.45;7.50;;;;;;;17.11;45.16;100014.78;4988263;28;20116;-94
2022/11/03 09:01:59;;;;;;;;;;;;;;;;;;;;;
2022/11/03 09:04:25;;;;;;;14.55;5.60;;;;;;;17.13;44.72;99982.63;4999709;28;20124;-95
2022/11/03 09:06:51;;;;;;;14.00;6.03;;;;;;;17.31;43.89;99997.31;4986991;28;20065;-93
2022/11/03 09:09:24;;;;;;;14.43;5.95;;;;;;;17.35;44.00;99987.44;4986663;28;20026;-95
2022/11/03 09:11:52;;;;;;;12.63;5.47;;;;;;;17.47;43.86;99992.41;4990938;28;20117;-95
2022/11/03 09:14:20;;;;;;;12.18;5.40;;;;;;;17.49;43.66;99991.03;4990870;28;20037;-92
2022/11/03 09:16:46;;;;;;;12.05;5.50;;;;;;;17.60;43.22;99982.63;4986917;28;20028;-95
2022/11/03 09:19:15;;;;;;;12.60;7.38;;;;;;;17.66;43.40;99976.00;4999608;28;20029;-96
2022/11/03 09:22:07;;;;;;;15.93;7.47;;;;;;;17.92;44.04;99995.44;4972603;28;20034;-95
2022/11/03 09:24:32;;;;;;;9.90;5.32;;;;;;;17.89;44.00;99975.06;5004206;28;20021;-93
2022/11/03 09:27:03;;;;;;;11.77;5.57;;;;;;;18.01;42.66;99981.91;4984170;28;20028;-92
2022/11/03 09:29:31;;;;;;;9.15;5.18;;;;;;;18.01;42.75;99950.00;5004435;28;20075;-94
2022/11/03 09:32:05;;;;;;;7.80;4.25;;;;;;;18.14;41.77;99971.00;5005733;28;20025;-93
2022/11/03 09:34:31;;;;;;;10.07;4.97;;;;;;;18.11;42.17;99951.72;4991347;28;20029;-94
2022/11/03 09:36:56;;;;;;;11.75;5.82;;;;;;;18.15;42.32;99956.25;4988883;28;20437;-93
2022/11/03 09:39:22;;;;;;;11.00;4.72;;;;;;;18.12;42.10;99931.53;5003736;28;20025;-93
2022/11/03 09:41:53;;;;;;;10.98;4.75;;;;;;;18.20;42.67;99935.44;4991656;28;20083;-96
2022/11/03 09:44:26;;;;;;;16.45;8.23;;;;;;;18.34;41.93;99955.31;4988955;28;20025;-92
2022/11/03 09:47:15;;;;;;;;;;;;;;;;;;;;;
2022/11/03 09:49:40;;;;;;;12.55;4.70;;;;;;;18.32;41.45;99930.28;5010441;28;20447;-94
2022/11/03 09:52:09;;;;;;;10.10;5.07;;;;;;;18.25;42.23;99919.81;4988036;28;20045;-92
2022/11/03 09:54:34;;;;;;;10.98;5.18;;;;;;;18.27;41.54;99912.13;5003096;28;20065;-93
2022/11/03 09:57:12;;;;;;;10.68;4.90;;;;;;;18.31;42.02;99917.78;4989517;28;20026;-93
2022/11/03 09:59:38;;;;;;;12.63;5.72;;;;;;;18.36;42.13;99904.00;4987328;28;20033;-90
2022/11/03 10:02:29;;;;;;;16.88;5.85;;;;;;;18.56;41.53;99919.91;5000798;28;20402;-92
2022/11/03 10:04:59;;;;;;;12.77;5.65;;;;;;;18.37;41.43;99897.47;5010175;28;20018;-92
2022/11/03 10:07:27;;;;;;;8.13;4.93;;;;;;;18.45;41.76;99895.91;4985242;28;20029;-93
2022/11/03 10:09:53;;;;;;;9.35;5.13;;;;;;;18.46;41.19;99892.88;5004806;28;20052;-93
2022/11/03 10:12:25;;;;;;;10.57;4.57;;;;;;;18.52;41.20;99901.75;4987176;28;20025;-92
2022/11/03 10:14:56;;;;;;;;;;;;;;;18.64;41.30;99914.84;4990082;28;20091;-93
2022/11/03 10:17:26;;;;;;;13.30;4.57;;;;;;;18.51;41.10;99889.22;5000637;28;19923;-93
2022/11/03 10:19:55;;;;;;;10.68;6.63;;;;;;;18.57;41.34;99885.25;4987731;28;20025;-94
2022/11/03 10:23:22;;;;;;;9.43;4.60;;;;;;;18.70;41.00;99906.22;4980276;28;20430;-92
2022/11/03 10:32:35;;;;;;;11.13;4.93;;;;;;;18.68;40.92;99869.47;4973463;28;20069;-91
2022/11/03 10:35:30;;;;;;;13.48;4.30;;;;;;;18.71;40.41;99861.47;4941508;28;20110;-94
2022/11/03 10:38:21;;;;;;;15.55;7.70;;;;;;;18.90;40.48;99882.31;4978050;28;20046;-92
2022/11/03 10:40:47;;;;;;;9.80;5.38;;;;;;;18.89;40.53;99865.13;4997234;28;20045;-92
2022/11/03 10:43:16;;;;;;;11.05;5.15;;;;;;;18.80;40.54;99842.47;4997194;28;20401;-91
2022/11/03 10:45:48;;;;;;;12.73;4.32;;;;;;;18.80;40.05;99842.47;4981547;28;20029;-92
2022/11/03 10:48:20;;;;;;;8.90;4.78;;;;;;;18.83;40.62;99836.38;5007579;28;20025;-91
2022/11/03 10:50:45;;;;;;;12.77;4.45;;;;;;;18.80;40.22;99834.28;4999382;28;20041;-91
2022/11/03 10:53:24;;;;;;;8.07;4.75;;;;;;;18.82;40.15;99831.22;5016260;28;20045;-90
2022/11/03 10:55:54;;;;;;;7.50;4.65;;;;;;;18.93;40.46;99840.78;4999477;28;20022;-92
2022/11/03 10:58:22;;;;;;;9.38;4.53;;;;;;;19.01;40.10;99829.09;4981626;28;20045;-91
2022/11/03 11:00:50;;;;;;;10.40;4.97;;;;;;;18.92;40.05;99818.13;4993081;28;20025;-92
2022/11/03 11:03:25;;;;;;;11.38;5.50;;;;;;;19.08;40.46;99840.34;5007590;28;20029;-93
2022/11/03 11:05:50;;;;;;;16.60;5.38;;;;;;;18.98;40.29;99816.88;4979398;28;20442;-91
2022/11/03 11:11:21;;;;;;;11.88;5.55;;;;;;;19.04;40.02;99814.81;4987872;28;20034;-96
2022/11/03 11:14:27;;;;;;;10.48;5.82;;;;;;;19.22;40.37;99837.53;4999831;28;20447;-96
2022/11/03 11:16:56;;;;;;;10.82;5.30;;;;;;;19.17;40.23;99829.47;5027355;28;20029;-94
2022/11/03 11:19:26;;;;;;;15.45;5.78;;;;;;;19.16;40.25;99820.50;4997167;28;20012;-95
2022/11/03 11:21:54;;;;;;;7.75;5.07;;;;;;;19.26;40.02;99832.22;4995150;28;22083;-95
2022/11/03 11:24:41;;;;;;;14.38;6.05;;;;;;;19.21;40.56;99830.44;5039522;28;20056;-94
2022/11/03 11:27:39;;;;;;;16.02;6.03;;;;;;;19.19;39.84;99827.22;4997340;28;20014;-90
2022/11/03 11:30:30;;;;;;;10.85;4.95;;;;;;;19.21;40.11;99821.47;4971331;28;20084;-91
2022/11/03 11:33:20;;;;;;;12.45;5.15;;;;;;;19.03;40.08;99798.75;4998001;28;20030;-92
2022/11/03 11:35:46;;;;;;;12.45;4.90;;;;;;;19.18;40.38;99815.50;4985370;28;20487;-91
2022/11/03 11:38:54;;;;;;;12.32;5.97;;;;;;;19.12;40.21;99800.41;5015389;28;20017;-94
2022/11/03 11:41:40;;;;;;;12.02;5.65;;;;;;;19.13;40.06;99802.03;5019588;28;20040;-95
2022/11/03 11:44:53;;;;;;;8.68;5.30;;;;;;;19.21;40.11;99805.88;5011959;28;20109;-91
2022/11/03 11:47:42;;;;;;;16.25;5.63;;;;;;;19.14;39.84;99800.88;5018432;28;20545;-91
2022/11/03 11:50:40;;;;;;;7.45;5.10;;;;;;;19.01;39.82;99766.31;5014063;28;20084;-89
2022/11/03 11:56:05;;;;;;;17.70;6.63;;;;;;;19.09;39.76;99768.28;5013370;28;20457;-94
2022/11/03 11:58:46;;;;;;;14.55;6.22;;;;;;;19.25;39.91;99774.09;5005021;28;20565;-89
2022/11/03 12:01:31;;;;;;;12.90;5.90;;;;;;;19.34;39.78;99785.88;5016386;28;20080;-91
2022/11/03 12:04:24;;;;;;;8.70;4.45;;;;;;;19.31;39.35;99764.63;4997931;28;20037;-93
2022/11/03 12:06:58;;;;;;;11.27;5.05;;;;;;;19.34;39.37;99768.66;4996716;28;20033;-94
2022/11/03 12:09:28;;;;;;;12.40;5.70;;;;;;;19.35;39.69;99759.34;4944820;28;20039;-91
2022/11/03 12:11:54;;;;;;;8.40;4.13;;;;;;;19.59;38.85;99784.31;4960059;28;20118;-92
2022/11/03 12:14:33;;;;;;;10.15;4.38;;;;;;;19.48;38.88;99754.88;4972684;28;20022;-90
2022/11/03 12:17:17;;;;;;;10.57;5.18;;;;;;;19.71;38.43;99778.25;4930172;28;20031;-92
2022/11/03 12:19:48;;;;;;;13.05;4.38;;;;;;;19.72;38.42;99768.13;4959927;28;20035;-92
2022/11/03 12:22:23;;;;;;;7.40;4.13;;;;;;;19.68;38.21;99767.13;4962460;28;20035;-93